Terminal Aerodrome Forecast
Issued by NWS Wilmington, NC

Home | Current Version | Previous Version | Text Only | Print | Product List | Glossary On
Versions: 1 2 3 4 5 6 7 8 9 10 11 12 13 14 15 16 17 18 19 20 21
000
FTUS42 KILM 160500
TAFILM
TAF
KILM 160521Z 1606/1706 35014G25KT P6SM SCT020 SCT060
     FM161300 03018G26KT P6SM SKC
     FM162300 04010KT P6SM SCT040=

USA.gov is the U.S. government's official web portal to all federal, state and local government web resources and services.